Wetterdaten: Woche 10.11.03 - 16.11.03 (KW46)
Datum Zeit Temperatur Luftfeuchte Luftdruck Regenmenge Wind Richtung Taupunkt Windchill
10.11.2003 00:00 0.8 C 95 % 1025.3 hPa 0.0 l/m 0.0 km/h (0 Bft) N 0.1 C 0.8 C
10.11.2003 01:00 0.4 C 94 % 1025.3 hPa 0.0 l/m 0.7 km/h (0 Bft) O -0.6 C 0.2 C
10.11.2003 02:00 0.0 C 97 % 1024.7 hPa 0.0 l/m 2.4 km/h (1 Bft) O -0.4 C -0.6 C
10.11.2003 03:00 -0.6 C 94 % 1024.3 hPa 0.0 l/m 0.9 km/h (0 Bft) O -1.5 C -0.8 C
10.11.2003 04:00 -0.5 C 95 % 1024.3 hPa 0.0 l/m 0.7 km/h (0 Bft) O -1.3 C -0.7 C
10.11.2003 05:00 -0.6 C 100 % 1024.3 hPa 0.0 l/m 1.8 km/h (1 Bft) O -0.6 C -1.1 C
10.11.2003 06:00 -0.6 C 100 % 1024.3 hPa 0.0 l/m 0.0 km/h (0 Bft) N -0.6 C -0.6 C
10.11.2003 07:00 -0.5 C 100 % 1024.3 hPa 0.0 l/m 0.0 km/h (0 Bft) N -0.5 C -0.5 C
10.11.2003 08:00 -0.2 C 100 % 1024.3 hPa 0.0 l/m 0.0 km/h (0 Bft) N -0.2 C -0.2 C
10.11.2003 09:00 0.2 C 100 % 1024.1 hPa 0.0 l/m 0.0 km/h (0 Bft) N 0.2 C 0.2 C
10.11.2003 10:00 0.7 C 100 % 1023.3 hPa 0.0 l/m 1.4 km/h (1 Bft) N-NO 0.7 C 0.4 C
10.11.2003 11:00 1.8 C 100 % 1023.1 hPa 0.0 l/m 0.2 km/h (0 Bft) N-NO 1.8 C 1.8 C
10.11.2003 12:00 4.4 C 98 % 1022.2 hPa 0.0 l/m 1.0 km/h (0 Bft) N-NO 4.0 C 4.2 C
10.11.2003 13:00 7.4 C 72 % 1021.4 hPa 0.0 l/m 0.1 km/h (0 Bft) N 2.8 C 7.4 C
10.11.2003 14:00 8.9 C 64 % 1021.2 hPa 0.0 l/m 5.9 km/h (2 Bft) O-SO 2.4 C 8.0 C
10.11.2003 15:00 8.2 C 64 % 1021.2 hPa 0.0 l/m 3.4 km/h (1 Bft) N 1.9 C 7.9 C
10.11.2003 16:00 6.1 C 75 % 1021.5 hPa 0.0 l/m 12.0 km/h (2 Bft) O-SO 2.0 C 3.6 C
10.11.2003 17:00 4.7 C 88 % 1022.2 hPa 0.0 l/m 12.2 km/h (2 Bft) O-SO 2.8 C 2.0 C
10.11.2003 18:00 4.8 C 91 % 1022.2 hPa 0.0 l/m 4.5 km/h (1 Bft) O-SO 3.4 C 3.9 C
10.11.2003 19:00 4.8 C 90 % 1022.2 hPa 0.0 l/m 8.1 km/h (2 Bft) O-SO 3.4 C 3.1 C
10.11.2003 20:00 4.2 C 90 % 1022.2 hPa 0.0 l/m 10.5 km/h (2 Bft) O-SO 2.8 C 1.7 C
10.11.2003 21:00 3.8 C 92 % 1023.0 hPa 0.0 l/m 2.6 km/h (1 Bft) O 2.6 C 3.3 C
10.11.2003 22:00 3.5 C 92 % 1023.3 hPa 0.0 l/m 1.5 km/h (1 Bft) NO 2.3 C 3.2 C
10.11.2003 23:00 3.4 C 92 % 1023.3 hPa 0.0 l/m 0.7 km/h (0 Bft) O 2.3 C 3.3 C
11.11.2003 00:00 3.1 C 92 % 1023.3 hPa 0.0 l/m 0.3 km/h (0 Bft) N 1.9 C 3.1 C
11.11.2003 01:00 2.9 C 94 % 1023.3 hPa 0.0 l/m 0.2 km/h (0 Bft) N 2.0 C 2.9 C
11.11.2003 02:00 2.8 C 93 % 1023.3 hPa 0.0 l/m 0.1 km/h (0 Bft) N 1.8 C 2.8 C
11.11.2003 03:00 2.9 C 93 % 1023.3 hPa 0.0 l/m 0.0 km/h (0 Bft) N 1.8 C 2.9 C
11.11.2003 04:00 2.9 C 93 % 1023.3 hPa 0.0 l/m 0.0 km/h (0 Bft) N 1.8 C 2.9 C
11.11.2003 05:00 3.0 C 93 % 1023.3 hPa 0.0 l/m 0.0 km/h (0 Bft) N 2.0 C 3.0 C
11.11.2003 06:00 3.0 C 93 % 1023.3 hPa 0.0 l/m 0.0 km/h (0 Bft) N 2.1 C 3.0 C
11.11.2003 07:00 3.1 C 93 % 1023.3 hPa 0.0 l/m 0.0 km/h (0 Bft) N 2.1 C 3.1 C
11.11.2003 08:00 3.5 C 89 % 1023.3 hPa 0.0 l/m 0.0 km/h (0 Bft) N 1.9 C 3.5 C
11.11.2003 09:00 3.9 C 87 % 1023.3 hPa 0.0 l/m 0.1 km/h (0 Bft) N-NO 1.9 C 3.9 C
11.11.2003 10:00 4.2 C 85 % 1023.3 hPa 0.0 l/m 0.1 km/h (0 Bft) N 1.9 C 4.2 C
11.11.2003 11:00 4.4 C 84 % 1023.3 hPa 0.0 l/m 0.3 km/h (0 Bft) NO 1.9 C 4.4 C
11.11.2003 12:00 4.8 C 84 % 1023.3 hPa 0.0 l/m 3.0 km/h (1 Bft) O 2.3 C 4.3 C
11.11.2003 13:00 4.7 C 84 % 1022.8 hPa 0.0 l/m 1.5 km/h (1 Bft) N-NO 2.3 C 4.6 C
11.11.2003 14:00 4.9 C 84 % 1022.2 hPa 0.0 l/m 0.1 km/h (0 Bft) N-NO 2.5 C 4.9 C
11.11.2003 15:00 4.9 C 87 % 1022.2 hPa 0.0 l/m 0.2 km/h (0 Bft) N-NO 3.0 C 4.9 C
11.11.2003 16:00 4.6 C 92 % 1022.2 hPa 0.0 l/m 0.3 km/h (0 Bft) N 3.5 C 4.6 C
11.11.2003 17:00 4.5 C 96 % 1022.2 hPa 0.0 l/m 0.0 km/h (0 Bft) N 3.9 C 4.5 C
11.11.2003 18:00 4.4 C 98 % 1022.2 hPa 0.0 l/m 0.7 km/h (0 Bft) N-NO 4.1 C 4.2 C
11.11.2003 19:00 4.4 C 98 % 1022.2 hPa 0.0 l/m 0.0 km/h (0 Bft) N 4.1 C 4.4 C
11.11.2003 20:00 4.5 C 98 % 1022.2 hPa 0.0 l/m 0.0 km/h (0 Bft) N 4.2 C 4.5 C
11.11.2003 21:00 4.5 C 98 % 1022.2 hPa 0.0 l/m 0.0 km/h (0 Bft) N 4.2 C 4.5 C
11.11.2003 22:00 4.3 C 99 % 1022.2 hPa 0.0 l/m 0.0 km/h (0 Bft) N 4.2 C 4.3 C
11.11.2003 23:00 4.2 C 100 % 1022.1 hPa 0.0 l/m 0.4 km/h (0 Bft) O-NO 4.1 C 4.1 C
12.11.2003 00:00 3.9 C 100 % 1021.2 hPa 0.0 l/m 0.1 km/h (0 Bft) N 3.9 C 3.9 C
12.11.2003 01:00 3.9 C 98 % 1021.2 hPa 0.0 l/m 0.1 km/h (0 Bft) N 3.6 C 3.9 C
12.11.2003 02:00 3.8 C 97 % 1021.2 hPa 0.0 l/m 1.1 km/h (1 Bft) SO 3.3 C 3.6 C
12.11.2003 03:00 3.5 C 97 % 1021.2 hPa 0.0 l/m 4.0 km/h (1 Bft) O-SO 3.1 C 2.5 C
12.11.2003 04:00 3.3 C 97 % 1021.2 hPa 0.0 l/m 1.6 km/h (1 Bft) NO 2.9 C 3.0 C
12.11.2003 05:00 3.3 C 96 % 1020.6 hPa 0.0 l/m 1.7 km/h (1 Bft) O-NO 2.8 C 3.0 C
12.11.2003 06:00 3.1 C 96 % 1020.4 hPa 0.0 l/m 2.1 km/h (1 Bft) O 2.6 C 2.9 C
12.11.2003 07:00 3.0 C 96 % 1021.2 hPa 0.0 l/m 1.7 km/h (1 Bft) W-NW 2.4 C 2.8 C
12.11.2003 08:00 3.2 C 95 % 1021.2 hPa 0.0 l/m 8.9 km/h (2 Bft) O-SO 2.5 C 1.0 C
12.11.2003 09:00 3.7 C 91 % 1021.3 hPa 0.0 l/m 4.5 km/h (1 Bft) O-SO 2.4 C 2.7 C
12.11.2003 10:00 4.5 C 86 % 1021.9 hPa 0.0 l/m 3.5 km/h (1 Bft) SO 2.4 C 3.8 C
12.11.2003 11:00 5.4 C 81 % 1021.5 hPa 0.0 l/m 4.3 km/h (1 Bft) O-SO 2.5 C 4.7 C
12.11.2003 12:00 6.5 C 76 % 1021.2 hPa 0.0 l/m 7.2 km/h (2 Bft) W-NW 2.6 C 5.2 C
12.11.2003 13:00 7.8 C 70 % 1020.4 hPa 0.0 l/m 9.4 km/h (2 Bft) N-NO 2.7 C 6.5 C
12.11.2003 14:00 7.1 C 73 % 1020.3 hPa 0.0 l/m 11.3 km/h (2 Bft) O-SO 2.6 C 5.2 C
12.11.2003 15:00 6.9 C 77 % 1020.1 hPa 0.0 l/m 9.9 km/h (2 Bft) O-SO 3.1 C 5.3 C
12.11.2003 16:00 6.4 C 81 % 1020.5 hPa 0.0 l/m 5.1 km/h (1 Bft) O-NO 3.3 C 5.6 C
12.11.2003 17:00 6.2 C 82 % 1021.2 hPa 0.0 l/m 5.9 km/h (2 Bft) O-SO 3.4 C 5.2 C
12.11.2003 18:00 6.2 C 83 % 1021.2 hPa 0.0 l/m 3.8 km/h (1 Bft) SO 3.6 C 5.6 C
12.11.2003 19:00 6.3 C 84 % 1021.2 hPa 0.0 l/m 7.6 km/h (2 Bft) SO 3.7 C 4.8 C
12.11.2003 20:00 6.4 C 84 % 1021.2 hPa 0.0 l/m 9.7 km/h (2 Bft) O-SO 3.9 C 4.5 C
12.11.2003 21:00 6.3 C 86 % 1021.7 hPa 0.0 l/m 1.2 km/h (1 Bft) NO 4.2 C 6.2 C
12.11.2003 22:00 6.3 C 88 % 1022.1 hPa 0.0 l/m 5.7 km/h (1 Bft) SO 4.4 C 5.3 C
12.11.2003 23:00 6.1 C 91 % 1022.0 hPa 0.3 l/m 2.1 km/h (1 Bft) O-SO 4.8 C 5.9 C
13.11.2003 00:00 6.1 C 97 % 1022.2 hPa 0.7 l/m 2.0 km/h (1 Bft) O-SO 5.7 C 5.9 C
13.11.2003 01:00 6.2 C 99 % 1022.2 hPa 0.3 l/m 2.9 km/h (1 Bft) O-SO 6.0 C 5.8 C
13.11.2003 02:00 6.4 C 100 % 1022.2 hPa 0.3 l/m 0.6 km/h (0 Bft) SO 6.4 C 6.4 C
13.11.2003 03:00 6.6 C 100 % 1022.5 hPa 1.0 l/m 3.6 km/h (1 Bft) O-SO 6.6 C 6.0 C
13.11.2003 04:00 7.0 C 100 % 1023.3 hPa 1.0 l/m 6.5 km/h (2 Bft) O-SO 7.0 C 5.8 C
13.11.2003 05:00 7.8 C 99 % 1023.6 hPa 1.8 l/m 7.8 km/h (2 Bft) NW 7.7 C 6.6 C
13.11.2003 06:00 8.2 C 93 % 1024.3 hPa 1.0 l/m 17.4 km/h (3 Bft) NW 7.0 C 5.5 C
13.11.2003 07:00 8.1 C 92 % 1025.3 hPa 0.0 l/m 21.1 km/h (4 Bft) NW 6.9 C 4.9 C
13.11.2003 08:00 8.1 C 90 % 1026.1 hPa 0.0 l/m 26.6 km/h (4 Bft) NW 6.5 C 4.4 C
13.11.2003 09:00 8.1 C 87 % 1027.0 hPa 0.0 l/m 20.5 km/h (4 Bft) NW 6.1 C 5.0 C
13.11.2003 10:00 8.1 C 87 % 1027.4 hPa 0.0 l/m 10.1 km/h (2 Bft) NW 6.1 C 6.5 C
13.11.2003 11:00 8.6 C 83 % 1027.4 hPa 0.0 l/m 5.8 km/h (2 Bft) NW 5.8 C 7.9 C
13.11.2003 12:00 9.5 C 76 % 1027.4 hPa 0.0 l/m 0.5 km/h (0 Bft) O-SO 5.4 C 9.5 C
13.11.2003 13:00 9.7 C 73 % 1027.4 hPa 0.0 l/m 2.0 km/h (1 Bft) NW 5.1 C 9.6 C
13.11.2003 14:00 10.1 C 70 % 1027.4 hPa 0.0 l/m 0.4 km/h (0 Bft) NW 4.8 C 10.1 C
13.11.2003 15:00 10.2 C 67 % 1027.4 hPa 0.0 l/m 6.2 km/h (2 Bft) NW 4.4 C 10.1 C
13.11.2003 16:00 8.0 C 73 % 1027.4 hPa 0.0 l/m 1.3 km/h (1 Bft) W-NW 3.5 C 7.8 C
13.11.2003 17:00 6.2 C 85 % 1027.5 hPa 0.0 l/m 5.3 km/h (1 Bft) O-SO 3.9 C 5.2 C
13.11.2003 18:00 4.8 C 91 % 1028.4 hPa 0.0 l/m 3.0 km/h (1 Bft) O 3.4 C 4.3 C
13.11.2003 19:00 3.7 C 93 % 1028.5 hPa 0.0 l/m 0.5 km/h (0 Bft) O-SO 2.7 C 3.7 C
13.11.2003 20:00 3.5 C 100 % 1027.8 hPa 0.0 l/m 3.1 km/h (1 Bft) O-SO 3.5 C 3.0 C
13.11.2003 21:00 3.3 C 100 % 1027.4 hPa 0.0 l/m 0.2 km/h (0 Bft) O-SO 3.3 C 3.3 C
13.11.2003 22:00 3.7 C 100 % 1026.5 hPa 0.0 l/m 0.0 km/h (0 Bft) N 3.7 C 3.7 C
13.11.2003 23:00 4.0 C 100 % 1026.4 hPa 0.0 l/m 0.7 km/h (0 Bft) O-SO 4.0 C 4.0 C
14.11.2003 00:00 4.3 C 100 % 1026.1 hPa 0.0 l/m 0.4 km/h (0 Bft) O-SO 4.3 C 4.3 C
14.11.2003 01:00 4.5 C 100 % 1025.3 hPa 0.0 l/m 0.0 km/h (0 Bft) N 4.5 C 4.5 C
14.11.2003 02:00 4.6 C 100 % 1025.3 hPa 0.0 l/m 0.0 km/h (0 Bft) N 4.6 C 4.6 C
14.11.2003 03:00 4.6 C 100 % 1025.3 hPa 0.0 l/m 0.6 km/h (0 Bft) O-SO 4.6 C 4.6 C
14.11.2003 04:00 4.8 C 100 % 1025.3 hPa 0.0 l/m 3.7 km/h (1 Bft) O-SO 4.8 C 4.1 C
14.11.2003 05:00 4.9 C 99 % 1024.6 hPa 0.0 l/m 0.0 km/h (0 Bft) N 4.8 C 4.9 C
14.11.2003 06:00 5.0 C 99 % 1024.3 hPa 0.0 l/m 0.0 km/h (0 Bft) N 4.8 C 5.0 C
14.11.2003 07:00 5.0 C 98 % 1024.1 hPa 0.0 l/m 0.0 km/h (0 Bft) N 4.8 C 5.0 C
14.11.2003 08:00 5.3 C 97 % 1024.3 hPa 0.0 l/m 0.0 km/h (0 Bft) O-SO 4.9 C 5.3 C
14.11.2003 09:00 6.0 C 91 % 1023.3 hPa 0.0 l/m 2.9 km/h (1 Bft) O-SO 4.6 C 5.5 C
14.11.2003 10:00 6.8 C 78 % 1023.3 hPa 0.0 l/m 3.0 km/h (1 Bft) O-SO 3.3 C 6.3 C
14.11.2003 11:00 6.7 C 75 % 1023.3 hPa 0.0 l/m 1.4 km/h (1 Bft) S 2.7 C 6.6 C
14.11.2003 12:00 7.2 C 74 % 1022.7 hPa 0.0 l/m 5.5 km/h (1 Bft) O-SO 2.8 C 6.2 C
14.11.2003 13:00 7.9 C 71 % 1022.2 hPa 0.0 l/m 9.4 km/h (2 Bft) O-SO 3.0 C 6.4 C
14.11.2003 14:00 8.4 C 68 % 1022.2 hPa 0.0 l/m 3.5 km/h (1 Bft) O 2.9 C 8.0 C
14.11.2003 15:00 7.6 C 71 % 1022.1 hPa 0.0 l/m 7.4 km/h (2 Bft) S 2.7 C 6.5 C
14.11.2003 16:00 6.9 C 74 % 1022.2 hPa 0.0 l/m 5.4 km/h (1 Bft) SO 2.6 C 6.1 C
14.11.2003 17:00 6.7 C 77 % 1022.2 hPa 0.0 l/m 3.3 km/h (1 Bft) O-SO 3.0 C 6.2 C
14.11.2003 18:00 6.7 C 78 % 1022.2 hPa 0.0 l/m 7.1 km/h (2 Bft) SO 3.2 C 5.5 C
14.11.2003 19:00 6.7 C 79 % 1022.2 hPa 0.0 l/m 1.8 km/h (1 Bft) O-SO 3.2 C 6.5 C
14.11.2003 20:00 6.5 C 81 % 1022.2 hPa 0.0 l/m 0.6 km/h (0 Bft) O-SO 3.5 C 6.4 C
14.11.2003 21:00 6.4 C 84 % 1022.2 hPa 0.0 l/m 1.4 km/h (1 Bft) O-SO 3.9 C 6.1 C
14.11.2003 22:00 6.2 C 86 % 1022.2 hPa 0.0 l/m 0.9 km/h (0 Bft) O-SO 3.9 C 6.0 C
14.11.2003 23:00 6.1 C 87 % 1022.2 hPa 0.0 l/m 0.0 km/h (0 Bft) N 4.1 C 6.1 C
15.11.2003 00:00 5.6 C 91 % 1022.2 hPa 0.0 l/m 1.1 km/h (1 Bft) SO 4.3 C 5.4 C
15.11.2003 01:00 5.4 C 96 % 1021.4 hPa 0.0 l/m 2.9 km/h (1 Bft) O-SO 4.7 C 4.9 C
15.11.2003 02:00 5.2 C 96 % 1021.3 hPa 0.0 l/m 3.2 km/h (1 Bft) O-SO 4.6 C 4.6 C
15.11.2003 03:00 4.3 C 96 % 1021.2 hPa 0.0 l/m 6.2 km/h (2 Bft) O-SO 3.6 C 2.8 C
15.11.2003 04:00 3.7 C 98 % 1021.2 hPa 0.0 l/m 6.4 km/h (2 Bft) O 3.4 C 2.1 C
15.11.2003 05:00 4.0 C 100 % 1020.9 hPa 0.0 l/m 2.9 km/h (1 Bft) O 3.9 C 3.4 C
15.11.2003 06:00 3.4 C 98 % 1020.1 hPa 0.0 l/m 0.0 km/h (0 Bft) N 3.1 C 3.4 C
15.11.2003 07:00 3.2 C 99 % 1020.4 hPa 0.0 l/m 0.8 km/h (0 Bft) O 3.1 C 3.1 C
15.11.2003 08:00 3.8 C 100 % 1020.2 hPa 0.0 l/m 0.0 km/h (0 Bft) N 3.8 C 3.8 C
15.11.2003 09:00 4.3 C 100 % 1020.1 hPa 0.0 l/m 0.3 km/h (0 Bft) O 4.3 C 4.3 C
15.11.2003 10:00 4.8 C 100 % 1019.6 hPa 0.0 l/m 0.1 km/h (0 Bft) N 4.8 C 4.8 C
15.11.2003 11:00 5.7 C 100 % 1018.8 hPa 0.0 l/m 0.3 km/h (0 Bft) NO 5.7 C 5.7 C
15.11.2003 12:00 8.3 C 82 % 1017.9 hPa 0.0 l/m 0.6 km/h (0 Bft) NO 5.2 C 8.3 C
15.11.2003 13:00 10.6 C 65 % 1016.8 hPa 0.0 l/m 1.4 km/h (1 Bft) NW 4.3 C 10.6 C
15.11.2003 14:00 11.5 C 58 % 1016.0 hPa 0.0 l/m 2.0 km/h (1 Bft) W-NW 3.6 C 11.5 C
15.11.2003 15:00 10.6 C 61 % 1014.9 hPa 0.0 l/m 0.1 km/h (0 Bft) N 3.4 C 10.6 C
15.11.2003 16:00 9.1 C 69 % 1014.9 hPa 0.0 l/m 0.0 km/h (0 Bft) N 3.6 C 9.1 C
15.11.2003 17:00 7.2 C 80 % 1014.9 hPa 0.0 l/m 0.4 km/h (0 Bft) N-NW 3.9 C 7.2 C
15.11.2003 18:00 5.9 C 87 % 1015.8 hPa 0.0 l/m 0.4 km/h (0 Bft) N 4.0 C 5.9 C
15.11.2003 19:00 5.2 C 90 % 1016.0 hPa 0.0 l/m 1.6 km/h (1 Bft) NO 3.7 C 4.9 C
15.11.2003 20:00 4.7 C 93 % 1015.7 hPa 0.0 l/m 1.2 km/h (1 Bft) NO 3.7 C 4.5 C
15.11.2003 21:00 4.2 C 92 % 1014.9 hPa 0.0 l/m 0.0 km/h (0 Bft) N 3.0 C 4.2 C
15.11.2003 22:00 4.1 C 91 % 1014.9 hPa 0.0 l/m 0.0 km/h (0 Bft) N 2.8 C 4.1 C
15.11.2003 23:00 3.4 C 93 % 1014.9 hPa 0.0 l/m 0.0 km/h (0 Bft) N 2.4 C 3.4 C
16.11.2003 00:00 2.9 C 96 % 1014.9 hPa 0.0 l/m 0.6 km/h (0 Bft) NO 2.3 C 2.8 C
16.11.2003 01:00 2.5 C 96 % 1014.9 hPa 0.0 l/m 0.5 km/h (0 Bft) O 2.0 C 2.5 C
16.11.2003 02:00 2.3 C 98 % 1014.6 hPa 0.0 l/m 1.9 km/h (1 Bft) O 2.1 C 1.9 C
16.11.2003 03:00 2.7 C 100 % 1014.1 hPa 0.0 l/m 1.3 km/h (1 Bft) NO 2.7 C 2.3 C
16.11.2003 04:00 2.9 C 99 % 1013.9 hPa 0.0 l/m 1.7 km/h (1 Bft) O 2.8 C 2.6 C
16.11.2003 05:00 3.0 C 100 % 1014.1 hPa 0.0 l/m 3.1 km/h (1 Bft) O-SO 3.0 C 2.2 C
16.11.2003 06:00 3.1 C 100 % 1013.9 hPa 0.0 l/m 0.0 km/h (0 Bft) N 3.1 C 3.1 C
16.11.2003 07:00 3.5 C 100 % 1014.2 hPa 0.0 l/m 1.2 km/h (1 Bft) O-SO 3.5 C 3.2 C
16.11.2003 08:00 3.9 C 100 % 1014.6 hPa 0.0 l/m 0.1 km/h (0 Bft) N 3.8 C 3.9 C
16.11.2003 09:00 5.0 C 93 % 1014.6 hPa 0.0 l/m 0.2 km/h (0 Bft) N 3.9 C 5.0 C
16.11.2003 10:00 6.3 C 83 % 1013.9 hPa 0.0 l/m 0.4 km/h (0 Bft) N-NO 3.7 C 6.2 C
16.11.2003 11:00 7.9 C 75 % 1013.9 hPa 0.0 l/m 5.7 km/h (1 Bft) O-SO 3.8 C 7.1 C
16.11.2003 12:00 9.7 C 64 % 1013.3 hPa 0.0 l/m 2.2 km/h (1 Bft) O-SO 3.3 C 9.6 C
16.11.2003 13:00 9.5 C 66 % 1012.8 hPa 0.0 l/m 0.1 km/h (0 Bft) N 3.4 C 9.5 C
16.11.2003 14:00 10.2 C 63 % 1012.8 hPa 0.0 l/m 0.2 km/h (0 Bft) N 3.5 C 10.2 C
16.11.2003 15:00 9.7 C 65 % 1012.8 hPa 0.0 l/m 0.0 km/h (0 Bft) N 3.5 C 9.7 C
16.11.2003 16:00 9.0 C 73 % 1012.8 hPa 0.0 l/m 1.0 km/h (0 Bft) NO 4.3 C 8.9 C
16.11.2003 17:00 8.0 C 78 % 1012.8 hPa 0.0 l/m 1.9 km/h (1 Bft) NO 4.3 C 7.8 C
16.11.2003 18:00 7.2 C 84 % 1013.4 hPa 0.0 l/m 3.8 km/h (1 Bft) NO 4.5 C 6.6 C
16.11.2003 19:00 6.8 C 89 % 1014.0 hPa 0.0 l/m 0.8 km/h (0 Bft) O 5.1 C 6.7 C
16.11.2003 20:00 6.8 C 95 % 1014.9 hPa 3.5 l/m 1.5 km/h (1 Bft) O 6.0 C 6.6 C
16.11.2003 21:00 7.0 C 98 % 1014.9 hPa 1.8 l/m 5.9 km/h (2 Bft) O-SO 6.7 C 5.9 C
16.11.2003 22:00 7.3 C 100 % 1014.9 hPa 1.0 l/m 4.9 km/h (1 Bft) O-SO 7.2 C 6.5 C
16.11.2003 23:00 7.3 C 100 % 1015.0 hPa 0.0 l/m 2.8 km/h (1 Bft) O-SO 7.2 C 6.9 C
Min-Datum _ 10.11.03 15.11.03 16.11.03 - 10.11.03 - 10.11.03 10.11.03
_ Min-Zeit 03:57 14:39 12:09 - 00:00 - 03:57 05:06
Minimum _ -1.0 C 54 % 1012.8 hPa - 0.0 km/h (0 Bft) - -2.3 C -2.7 C
Max-Datum _ 15.11.03 10.11.03 13.11.03 16.11.03 13.11.03 - 13.11.03 15.11.03
_ Max-Zeit 14:36 02:24 17:54 20:08 08:15 - 05:39 14:36
Maximum _ 12.2 C 100 % 1028.5 hPa 3.5 l/m 36.2 km/h
NW (5 Bft)
- 8.1 C 12.2 C
Durchschnitt _ 5.2 C 89 % 1021.2 hPa #12.9 l/m 2.8 km/h (1 Bft) O-SO 3.4 C 4.8 C

Durchschnitt Minimum Temp.4.8 C
Durchschnitt Maximum Temp.5.6 C
© Kaiko 2003